sensor_id;sensor_type;location;lat;lon;timestamp;P1;durP1;ratioP1;P2;durP2;ratioP2
10005;SDS011;5042;42.626;23.382;2023-08-20T00:00:38;4.88;;;4.35;;
10005;SDS011;5042;42.626;23.382;2023-08-20T00:03:08;5.35;;;4.85;;
10005;SDS011;5042;42.626;23.382;2023-08-20T00:05:37;5.32;;;4.82;;
10005;SDS011;5042;42.626;23.382;2023-08-20T00:08:05;6.22;;;5.07;;
10005;SDS011;5042;42.626;23.382;2023-08-20T00:10:32;5.93;;;4.55;;
10005;SDS011;5042;42.626;23.382;2023-08-20T00:12:58;5.88;;;4.70;;
10005;SDS011;5042;42.626;23.382;2023-08-20T00:15:27;6.18;;;5.07;;
10005;SDS011;5042;42.626;23.382;2023-08-20T00:17:53;7.88;;;5.10;;
10005;SDS011;5042;42.626;23.382;2023-08-20T00:20:21;5.45;;;4.93;;
10005;SDS011;5042;42.626;23.382;2023-08-20T00:22:49;5.97;;;5.38;;
10005;SDS011;5042;42.626;23.382;2023-08-20T00:25:16;5.30;;;4.80;;
10005;SDS011;5042;42.626;23.382;2023-08-20T00:27:43;6.65;;;5.60;;
10005;SDS011;5042;42.626;23.382;2023-08-20T00:30:11;5.45;;;4.85;;
10005;SDS011;5042;42.626;23.382;2023-08-20T00:32:39;5.43;;;4.88;;
10005;SDS011;5042;42.626;23.382;2023-08-20T00:35:06;6.00;;;5.40;;
10005;SDS011;5042;42.626;23.382;2023-08-20T00:37:33;6.50;;;5.65;;
10005;SDS011;5042;42.626;23.382;2023-08-20T00:40:01;7.20;;;5.30;;
10005;SDS011;5042;42.626;23.382;2023-08-20T00:42:30;6.60;;;5.35;;
10005;SDS011;5042;42.626;23.382;2023-08-20T00:44:56;6.53;;;5.35;;
10005;SDS011;5042;42.626;23.382;2023-08-20T00:47:23;5.97;;;5.43;;
10005;SDS011;5042;42.626;23.382;2023-08-20T00:49:52;5.47;;;4.97;;
10005;SDS011;5042;42.626;23.382;2023-08-20T00:52:19;6.07;;;5.43;;
10005;SDS011;5042;42.626;23.382;2023-08-20T00:54:47;6.45;;;5.65;;
10005;SDS011;5042;42.626;23.382;2023-08-20T00:57:14;6.60;;;5.40;;
10005;SDS011;5042;42.626;23.382;2023-08-20T00:59:43;5.93;;;5.40;;
10005;SDS011;5042;42.626;23.382;2023-08-20T01:02:11;6.65;;;5.95;;
10005;SDS011;5042;42.626;23.382;2023-08-20T01:04:38;5.95;;;5.35;;
10005;SDS011;5042;42.626;23.382;2023-08-20T01:07:08;8.82;;;5.95;;
10005;SDS011;5042;42.626;23.382;2023-08-20T01:09:50;6.75;;;5.65;;
10005;SDS011;5042;42.626;23.382;2023-08-20T01:12:21;8.38;;;5.63;;
10005;SDS011;5042;42.626;23.382;2023-08-20T01:14:49;7.70;;;5.68;;
10005;SDS011;5042;42.626;23.382;2023-08-20T01:17:15;6.63;;;5.80;;
10005;SDS011;5042;42.626;23.382;2023-08-20T01:19:42;6.43;;;5.70;;
10005;SDS011;5042;42.626;23.382;2023-08-20T01:22:21;6.30;;;5.53;;
10005;SDS011;5042;42.626;23.382;2023-08-20T01:25:09;6.05;;;5.45;;
10005;SDS011;5042;42.626;23.382;2023-08-20T01:27:49;7.00;;;5.80;;
10005;SDS011;5042;42.626;23.382;2023-08-20T01:30:24;6.85;;;5.90;;
10005;SDS011;5042;42.626;23.382;2023-08-20T01:32:52;7.13;;;5.35;;
10005;SDS011;5042;42.626;23.382;2023-08-20T01:35:20;6.45;;;5.85;;
10005;SDS011;5042;42.626;23.382;2023-08-20T01:37:51;6.88;;;6.25;;
10005;SDS011;5042;42.626;23.382;2023-08-20T01:40:18;8.38;;;6.30;;
10005;SDS011;5042;42.626;23.382;2023-08-20T01:42:45;6.85;;;6.15;;
10005;SDS011;5042;42.626;23.382;2023-08-20T01:45:12;7.25;;;6.53;;
10005;SDS011;5042;42.626;23.382;2023-08-20T01:47:40;8.07;;;6.53;;
10005;SDS011;5042;42.626;23.382;2023-08-20T01:50:07;7.85;;;5.88;;
10005;SDS011;5042;42.626;23.382;2023-08-20T01:52:34;6.75;;;5.93;;
10005;SDS011;5042;42.626;23.382;2023-08-20T01:55:01;6.28;;;5.68;;
10005;SDS011;5042;42.626;23.382;2023-08-20T01:57:27;6.20;;;5.60;;
10005;SDS011;5042;42.626;23.382;2023-08-20T01:59:54;7.82;;;6.07;;
10005;SDS011;5042;42.626;23.382;2023-08-20T02:02:21;9.00;;;6.50;;
10005;SDS011;5042;42.626;23.382;2023-08-20T02:04:49;9.95;;;6.55;;
10005;SDS011;5042;42.626;23.382;2023-08-20T02:07:15;8.10;;;6.43;;
10005;SDS011;5042;42.626;23.382;2023-08-20T02:09:42;6.80;;;6.20;;
10005;SDS011;5042;42.626;23.382;2023-08-20T02:12:09;7.40;;;6.57;;
10005;SDS011;5042;42.626;23.382;2023-08-20T02:14:36;6.25;;;5.70;;
10005;SDS011;5042;42.626;23.382;2023-08-20T02:17:02;7.25;;;6.45;;
10005;SDS011;5042;42.626;23.382;2023-08-20T02:19:30;7.10;;;6.15;;
10005;SDS011;5042;42.626;23.382;2023-08-20T02:21:58;7.13;;;6.30;;
10005;SDS011;5042;42.626;23.382;2023-08-20T02:24:25;6.70;;;6.10;;
10005;SDS011;5042;42.626;23.382;2023-08-20T02:26:51;7.47;;;6.78;;
10005;SDS011;5042;42.626;23.382;2023-08-20T02:29:18;7.78;;;6.43;;
10005;SDS011;5042;42.626;23.382;2023-08-20T02:31:45;7.75;;;5.88;;
10005;SDS011;5042;42.626;23.382;2023-08-20T02:34:11;8.27;;;6.35;;
10005;SDS011;5042;42.626;23.382;2023-08-20T02:36:38;6.97;;;6.32;;
10005;SDS011;5042;42.626;23.382;2023-08-20T02:39:06;9.07;;;6.10;;
10005;SDS011;5042;42.626;23.382;2023-08-20T02:41:33;6.93;;;6.22;;
10005;SDS011;5042;42.626;23.382;2023-08-20T02:44:01;6.93;;;6.32;;
10005;SDS011;5042;42.626;23.382;2023-08-20T02:46:28;7.00;;;6.30;;
10005;SDS011;5042;42.626;23.382;2023-08-20T02:49:12;6.93;;;6.22;;
10005;SDS011;5042;42.626;23.382;2023-08-20T02:51:39;9.57;;;6.40;;
10005;SDS011;5042;42.626;23.382;2023-08-20T02:54:08;7.18;;;6.47;;
10005;SDS011;5042;42.626;23.382;2023-08-20T02:56:35;7.68;;;6.32;;
10005;SDS011;5042;42.626;23.382;2023-08-20T02:59:02;8.30;;;6.78;;
10005;SDS011;5042;42.626;23.382;2023-08-20T03:01:29;7.10;;;6.40;;
10005;SDS011;5042;42.626;23.382;2023-08-20T03:03:55;8.82;;;7.57;;
10005;SDS011;5042;42.626;23.382;2023-08-20T03:06:22;6.93;;;6.22;;
10005;SDS011;5042;42.626;23.382;2023-08-20T03:08:49;7.35;;;6.45;;
10005;SDS011;5042;42.626;23.382;2023-08-20T03:11:17;7.00;;;6.30;;
10005;SDS011;5042;42.626;23.382;2023-08-20T03:13:44;8.18;;;5.95;;
10005;SDS011;5042;42.626;23.382;2023-08-20T03:16:10;7.53;;;6.40;;
10005;SDS011;5042;42.626;23.382;2023-08-20T03:18:37;6.22;;;5.60;;
10005;SDS011;5042;42.626;23.382;2023-08-20T03:21:04;7.53;;;6.10;;
10005;SDS011;5042;42.626;23.382;2023-08-20T03:23:30;6.72;;;6.10;;
10005;SDS011;5042;42.626;23.382;2023-08-20T03:25:57;7.50;;;6.07;;
10005;SDS011;5042;42.626;23.382;2023-08-20T03:28:26;6.53;;;5.93;;
10005;SDS011;5042;42.626;23.382;2023-08-20T03:30:52;7.20;;;6.30;;
10005;SDS011;5042;42.626;23.382;2023-08-20T03:33:19;7.05;;;6.32;;
10005;SDS011;5042;42.626;23.382;2023-08-20T03:35:46;6.90;;;6.10;;
10005;SDS011;5042;42.626;23.382;2023-08-20T03:38:12;6.78;;;5.70;;
10005;SDS011;5042;42.626;23.382;2023-08-20T03:40:39;7.28;;;6.40;;
10005;SDS011;5042;42.626;23.382;2023-08-20T03:43:06;6.47;;;5.80;;
10005;SDS011;5042;42.626;23.382;2023-08-20T03:45:34;6.70;;;5.85;;
10005;SDS011;5042;42.626;23.382;2023-08-20T03:48:00;6.60;;;5.95;;
10005;SDS011;5042;42.626;23.382;2023-08-20T03:50:27;6.70;;;5.85;;
10005;SDS011;5042;42.626;23.382;2023-08-20T03:52:54;7.35;;;5.43;;
10005;SDS011;5042;42.626;23.382;2023-08-20T03:55:20;6.60;;;5.85;;
10005;SDS011;5042;42.626;23.382;2023-08-20T03:57:47;7.82;;;5.80;;
10005;SDS011;5042;42.626;23.382;2023-08-20T04:00:14;6.50;;;5.88;;
10005;SDS011;5042;42.626;23.382;2023-08-20T04:02:42;5.93;;;5.40;;
10005;SDS011;5042;42.626;23.382;2023-08-20T04:05:09;6.32;;;5.72;;
10005;SDS011;5042;42.626;23.382;2023-08-20T04:07:36;6.35;;;5.75;;
10005;SDS011;5042;42.626;23.382;2023-08-20T04:10:02;6.97;;;5.97;;
10005;SDS011;5042;42.626;23.382;2023-08-20T04:12:29;6.88;;;6.18;;
10005;SDS011;5042;42.626;23.382;2023-08-20T04:14:56;7.80;;;5.85;;
10005;SDS011;5042;42.626;23.382;2023-08-20T04:17:23;7.45;;;5.90;;
10005;SDS011;5042;42.626;23.382;2023-08-20T04:19:51;7.97;;;6.50;;
10005;SDS011;5042;42.626;23.382;2023-08-20T04:22:17;8.45;;;6.13;;
10005;SDS011;5042;42.626;23.382;2023-08-20T04:24:44;6.60;;;5.90;;
10005;SDS011;5042;42.626;23.382;2023-08-20T04:27:11;6.63;;;5.78;;
10005;SDS011;5042;42.626;23.382;2023-08-20T04:29:37;6.85;;;5.93;;
10005;SDS011;5042;42.626;23.382;2023-08-20T04:32:04;6.10;;;5.50;;
10005;SDS011;5042;42.626;23.382;2023-08-20T04:34:31;6.53;;;5.95;;
10005;SDS011;5042;42.626;23.382;2023-08-20T04:36:59;6.65;;;5.82;;
10005;SDS011;5042;42.626;23.382;2023-08-20T04:39:26;6.20;;;5.60;;
10005;SDS011;5042;42.626;23.382;2023-08-20T04:41:53;5.97;;;5.18;;
10005;SDS011;5042;42.626;23.382;2023-08-20T04:44:22;6.68;;;6.00;;
10005;SDS011;5042;42.626;23.382;2023-08-20T04:46:49;6.68;;;5.93;;
10005;SDS011;5042;42.626;23.382;2023-08-20T04:49:15;6.55;;;5.95;;
10005;SDS011;5042;42.626;23.382;2023-08-20T04:51:42;7.63;;;6.13;;
10005;SDS011;5042;42.626;23.382;2023-08-20T04:54:10;7.60;;;5.82;;
10005;SDS011;5042;42.626;23.382;2023-08-20T04:56:37;7.75;;;5.95;;
10005;SDS011;5042;42.626;23.382;2023-08-20T04:59:03;7.20;;;5.95;;
10005;SDS011;5042;42.626;23.382;2023-08-20T05:01:30;6.80;;;5.60;;
10005;SDS011;5042;42.626;23.382;2023-08-20T05:03:57;6.47;;;5.88;;
10005;SDS011;5042;42.626;23.382;2023-08-20T05:06:23;8.07;;;6.18;;
10005;SDS011;5042;42.626;23.382;2023-08-20T05:08:50;6.93;;;6.10;;
10005;SDS011;5042;42.626;23.382;2023-08-20T05:11:18;5.97;;;5.38;;
10005;SDS011;5042;42.626;23.382;2023-08-20T05:13:45;6.10;;;5.53;;
10005;SDS011;5042;42.626;23.382;2023-08-20T05:16:13;6.30;;;5.70;;
10005;SDS011;5042;42.626;23.382;2023-08-20T05:18:40;6.53;;;5.82;;
10005;SDS011;5042;42.626;23.382;2023-08-20T05:21:06;5.75;;;5.25;;
10005;SDS011;5042;42.626;23.382;2023-08-20T05:23:33;5.65;;;5.10;;
10005;SDS011;5042;42.626;23.382;2023-08-20T05:26:00;5.95;;;5.05;;
10005;SDS011;5042;42.626;23.382;2023-08-20T05:28:28;5.20;;;4.70;;
10005;SDS011;5042;42.626;23.382;2023-08-20T05:30:55;5.68;;;5.13;;
10005;SDS011;5042;42.626;23.382;2023-08-20T05:33:22;6.75;;;4.80;;
10005;SDS011;5042;42.626;23.382;2023-08-20T05:35:49;6.03;;;5.43;;
10005;SDS011;5042;42.626;23.382;2023-08-20T05:38:15;7.95;;;5.10;;
10005;SDS011;5042;42.626;23.382;2023-08-20T05:40:42;5.20;;;4.70;;
10005;SDS011;5042;42.626;23.382;2023-08-20T05:43:09;7.15;;;4.55;;
10005;SDS011;5042;42.626;23.382;2023-08-20T05:45:37;4.68;;;4.28;;
10005;SDS011;5042;42.626;23.382;2023-08-20T05:48:04;4.10;;;3.80;;
10005;SDS011;5042;42.626;23.382;2023-08-20T05:50:31;4.50;;;4.05;;
10005;SDS011;5042;42.626;23.382;2023-08-20T05:52:57;5.50;;;4.32;;
10005;SDS011;5042;42.626;23.382;2023-08-20T05:55:24;4.20;;;3.80;;
10005;SDS011;5042;42.626;23.382;2023-08-20T05:57:51;5.13;;;3.65;;
10005;SDS011;5042;42.626;23.382;2023-08-20T06:00:17;4.60;;;4.20;;
10005;SDS011;5042;42.626;23.382;2023-08-20T06:02:46;4.80;;;4.35;;
10005;SDS011;5042;42.626;23.382;2023-08-20T06:05:12;5.00;;;4.60;;
10005;SDS011;5042;42.626;23.382;2023-08-20T06:07:39;4.78;;;4.38;;
10005;SDS011;5042;42.626;23.382;2023-08-20T06:10:06;5.90;;;4.78;;
10005;SDS011;5042;42.626;23.382;2023-08-20T06:12:34;7.25;;;5.18;;
10005;SDS011;5042;42.626;23.382;2023-08-20T06:15:01;6.25;;;5.35;;
10005;SDS011;5042;42.626;23.382;2023-08-20T06:17:27;6.82;;;5.38;;
10005;SDS011;5042;42.626;23.382;2023-08-20T06:19:55;7.45;;;5.30;;
10005;SDS011;5042;42.626;23.382;2023-08-20T06:22:22;5.72;;;5.15;;
10005;SDS011;5042;42.626;23.382;2023-08-20T06:24:49;5.43;;;4.93;;
10005;SDS011;5042;42.626;23.382;2023-08-20T06:27:15;5.30;;;4.85;;
10005;SDS011;5042;42.626;23.382;2023-08-20T06:29:42;5.50;;;5.00;;
10005;SDS011;5042;42.626;23.382;2023-08-20T06:32:09;7.22;;;5.32;;
10005;SDS011;5042;42.626;23.382;2023-08-20T06:34:35;7.20;;;5.28;;
10005;SDS011;5042;42.626;23.382;2023-08-20T06:37:04;5.30;;;4.80;;
10005;SDS011;5042;42.626;23.382;2023-08-20T06:39:30;7.10;;;5.65;;
10005;SDS011;5042;42.626;23.382;2023-08-20T06:41:57;5.75;;;5.13;;
10005;SDS011;5042;42.626;23.382;2023-08-20T06:44:24;6.45;;;4.75;;
10005;SDS011;5042;42.626;23.382;2023-08-20T06:46:50;5.30;;;4.80;;
10005;SDS011;5042;42.626;23.382;2023-08-20T06:49:17;5.20;;;4.35;;
10005;SDS011;5042;42.626;23.382;2023-08-20T06:51:44;5.03;;;4.32;;
10005;SDS011;5042;42.626;23.382;2023-08-20T06:54:12;5.47;;;4.35;;
10005;SDS011;5042;42.626;23.382;2023-08-20T06:56:40;8.10;;;4.57;;
10005;SDS011;5042;42.626;23.382;2023-08-20T06:59:07;5.78;;;4.47;;
10005;SDS011;5042;42.626;23.382;2023-08-20T07:01:33;5.35;;;4.85;;
10005;SDS011;5042;42.626;23.382;2023-08-20T07:04:00;4.90;;;4.28;;
10005;SDS011;5042;42.626;23.382;2023-08-20T07:06:27;4.78;;;4.38;;
10005;SDS011;5042;42.626;23.382;2023-08-20T07:08:54;4.53;;;4.22;;
10005;SDS011;5042;42.626;23.382;2023-08-20T07:11:22;4.47;;;4.07;;
10005;SDS011;5042;42.626;23.382;2023-08-20T07:13:49;4.40;;;4.00;;
10005;SDS011;5042;42.626;23.382;2023-08-20T07:16:16;5.07;;;4.30;;
10005;SDS011;5042;42.626;23.382;2023-08-20T07:18:43;4.32;;;4.00;;
10005;SDS011;5042;42.626;23.382;2023-08-20T07:21:09;6.20;;;4.30;;
10005;SDS011;5042;42.626;23.382;2023-08-20T07:23:36;5.50;;;4.05;;
10005;SDS011;5042;42.626;23.382;2023-08-20T07:26:06;4.82;;;4.43;;
10005;SDS011;5042;42.626;23.382;2023-08-20T07:28:36;5.35;;;4.63;;
10005;SDS011;5042;42.626;23.382;2023-08-20T07:31:20;5.00;;;4.40;;
10005;SDS011;5042;42.626;23.382;2023-08-20T07:33:47;4.30;;;3.90;;
10005;SDS011;5042;42.626;23.382;2023-08-20T07:36:14;6.03;;;4.20;;
10005;SDS011;5042;42.626;23.382;2023-08-20T07:38:41;4.57;;;4.18;;
10005;SDS011;5042;42.626;23.382;2023-08-20T07:41:08;5.65;;;3.97;;
10005;SDS011;5042;42.626;23.382;2023-08-20T07:43:37;4.75;;;4.35;;
10005;SDS011;5042;42.626;23.382;2023-08-20T07:46:04;5.90;;;4.38;;
10005;SDS011;5042;42.626;23.382;2023-08-20T07:48:31;5.95;;;4.28;;
10005;SDS011;5042;42.626;23.382;2023-08-20T07:50:58;4.50;;;4.10;;
10005;SDS011;5042;42.626;23.382;2023-08-20T07:53:24;4.03;;;3.70;;
10005;SDS011;5042;42.626;23.382;2023-08-20T07:55:51;6.10;;;4.65;;
10005;SDS011;5042;42.626;23.382;2023-08-20T07:58:18;5.22;;;4.68;;
10005;SDS011;5042;42.626;23.382;2023-08-20T08:00:46;4.28;;;3.85;;
10005;SDS011;5042;42.626;23.382;2023-08-20T08:03:13;5.22;;;4.82;;
10005;SDS011;5042;42.626;23.382;2023-08-20T08:05:42;4.68;;;3.85;;
10005;SDS011;5042;42.626;23.382;2023-08-20T08:08:12;5.88;;;3.90;;
10005;SDS011;5042;42.626;23.382;2023-08-20T08:10:39;5.03;;;4.55;;
10005;SDS011;5042;42.626;23.382;2023-08-20T08:13:05;4.32;;;3.90;;
10005;SDS011;5042;42.626;23.382;2023-08-20T08:15:32;4.63;;;4.15;;
10005;SDS011;5042;42.626;23.382;2023-08-20T08:18:00;3.85;;;3.50;;
10005;SDS011;5042;42.626;23.382;2023-08-20T08:20:27;4.28;;;3.88;;
10005;SDS011;5042;42.626;23.382;2023-08-20T08:22:54;4.70;;;4.22;;
10005;SDS011;5042;42.626;23.382;2023-08-20T08:25:20;5.80;;;4.43;;
10005;SDS011;5042;42.626;23.382;2023-08-20T08:27:47;8.00;;;4.38;;
10005;SDS011;5042;42.626;23.382;2023-08-20T08:30:14;5.43;;;3.88;;
10005;SDS011;5042;42.626;23.382;2023-08-20T08:32:41;3.67;;;3.38;;
10005;SDS011;5042;42.626;23.382;2023-08-20T08:35:09;3.60;;;3.30;;
10005;SDS011;5042;42.626;23.382;2023-08-20T08:37:36;3.70;;;3.40;;
10005;SDS011;5042;42.626;23.382;2023-08-20T08:40:03;7.07;;;4.18;;
10005;SDS011;5042;42.626;23.382;2023-08-20T08:42:31;3.35;;;3.15;;
10005;SDS011;5042;42.626;23.382;2023-08-20T08:44:59;3.38;;;3.08;;
10005;SDS011;5042;42.626;23.382;2023-08-20T08:47:26;3.70;;;3.40;;
10005;SDS011;5042;42.626;23.382;2023-08-20T08:49:54;3.78;;;3.47;;
10005;SDS011;5042;42.626;23.382;2023-08-20T08:52:23;3.08;;;2.88;;
10005;SDS011;5042;42.626;23.382;2023-08-20T08:54:51;5.20;;;4.00;;
10005;SDS011;5042;42.626;23.382;2023-08-20T08:57:19;3.08;;;2.88;;
10005;SDS011;5042;42.626;23.382;2023-08-20T08:59:46;4.72;;;3.47;;
10005;SDS011;5042;42.626;23.382;2023-08-20T09:02:13;3.60;;;3.30;;
10005;SDS011;5042;42.626;23.382;2023-08-20T09:04:40;3.60;;;3.30;;
10005;SDS011;5042;42.626;23.382;2023-08-20T09:07:10;5.38;;;4.25;;
10005;SDS011;5042;42.626;23.382;2023-08-20T09:09:43;3.30;;;3.10;;
10005;SDS011;5042;42.626;23.382;2023-08-20T09:12:13;4.05;;;3.20;;
10005;SDS011;5042;42.626;23.382;2023-08-20T09:14:43;4.78;;;4.28;;
10005;SDS011;5042;42.626;23.382;2023-08-20T09:17:13;2.95;;;2.75;;
10005;SDS011;5042;42.626;23.382;2023-08-20T09:19:39;4.13;;;3.42;;
10005;SDS011;5042;42.626;23.382;2023-08-20T09:22:10;3.67;;;3.38;;
10005;SDS011;5042;42.626;23.382;2023-08-20T09:24:39;3.45;;;3.15;;
10005;SDS011;5042;42.626;23.382;2023-08-20T09:27:09;4.05;;;3.35;;
10005;SDS011;5042;42.626;23.382;2023-08-20T09:29:43;4.95;;;3.40;;
10005;SDS011;5042;42.626;23.382;2023-08-20T09:32:13;3.72;;;2.78;;
10005;SDS011;5042;42.626;23.382;2023-08-20T09:34:41;4.30;;;2.97;;
10005;SDS011;5042;42.626;23.382;2023-08-20T09:37:08;3.28;;;2.92;;
10005;SDS011;5042;42.626;23.382;2023-08-20T09:39:36;3.55;;;3.25;;
10005;SDS011;5042;42.626;23.382;2023-08-20T09:42:03;2.70;;;2.50;;
10005;SDS011;5042;42.626;23.382;2023-08-20T09:44:33;3.10;;;2.90;;
10005;SDS011;5042;42.626;23.382;2023-08-20T09:47:02;3.35;;;3.00;;
10005;SDS011;5042;42.626;23.382;2023-08-20T09:49:30;2.30;;;2.15;;
10005;SDS011;5042;42.626;23.382;2023-08-20T09:52:02;2.67;;;2.47;;
10005;SDS011;5042;42.626;23.382;2023-08-20T09:54:33;2.40;;;2.20;;
10005;SDS011;5042;42.626;23.382;2023-08-20T09:57:07;3.28;;;2.90;;
10005;SDS011;5042;42.626;23.382;2023-08-20T09:59:40;2.70;;;2.50;;
10005;SDS011;5042;42.626;23.382;2023-08-20T10:02:08;2.88;;;2.67;;
10005;SDS011;5042;42.626;23.382;2023-08-20T10:04:40;2.92;;;2.63;;
10005;SDS011;5042;42.626;23.382;2023-08-20T10:07:08;3.08;;;2.88;;
10005;SDS011;5042;42.626;23.382;2023-08-20T10:09:36;2.47;;;2.30;;
10005;SDS011;5042;42.626;23.382;2023-08-20T10:12:04;2.90;;;2.70;;
10005;SDS011;5042;42.626;23.382;2023-08-20T10:14:31;2.83;;;2.50;;
10005;SDS011;5042;42.626;23.382;2023-08-20T10:17:00;3.30;;;2.58;;
10005;SDS011;5042;42.626;23.382;2023-08-20T10:19:32;4.60;;;3.03;;
10005;SDS011;5042;42.626;23.382;2023-08-20T10:21:59;3.30;;;3.00;;
10005;SDS011;5042;42.626;23.382;2023-08-20T10:24:28;2.97;;;2.78;;
10005;SDS011;5042;42.626;23.382;2023-08-20T10:27:08;3.25;;;2.78;;
10005;SDS011;5042;42.626;23.382;2023-08-20T10:29:36;2.85;;;2.65;;
10005;SDS011;5042;42.626;23.382;2023-08-20T10:32:09;3.10;;;2.50;;
10005;SDS011;5042;42.626;23.382;2023-08-20T10:34:37;3.75;;;3.10;;
10005;SDS011;5042;42.626;23.382;2023-08-20T10:37:14;3.45;;;3.15;;
10005;SDS011;5042;42.626;23.382;2023-08-20T10:39:41;3.08;;;2.88;;
10005;SDS011;5042;42.626;23.382;2023-08-20T10:42:09;3.63;;;3.33;;
10005;SDS011;5042;42.626;23.382;2023-08-20T10:45:00;2.95;;;2.75;;
10005;SDS011;5042;42.626;23.382;2023-08-20T10:47:37;2.92;;;2.72;;
10005;SDS011;5042;42.626;23.382;2023-08-20T10:50:08;4.55;;;3.30;;
10005;SDS011;5042;42.626;23.382;2023-08-20T10:52:38;5.85;;;3.00;;
10005;SDS011;5042;42.626;23.382;2023-08-20T10:55:06;3.08;;;2.78;;
10005;SDS011;5042;42.626;23.382;2023-08-20T10:57:34;4.35;;;3.10;;
10005;SDS011;5042;42.626;23.382;2023-08-20T11:00:02;4.85;;;3.08;;
10005;SDS011;5042;42.626;23.382;2023-08-20T11:02:37;3.20;;;2.90;;
10005;SDS011;5042;42.626;23.382;2023-08-20T11:05:09;3.85;;;3.15;;
10005;SDS011;5042;42.626;23.382;2023-08-20T11:07:44;4.35;;;3.20;;
10005;SDS011;5042;42.626;23.382;2023-08-20T11:10:12;5.47;;;3.55;;
10005;SDS011;5042;42.626;23.382;2023-08-20T11:12:39;4.60;;;3.92;;
10005;SDS011;5042;42.626;23.382;2023-08-20T11:15:07;3.22;;;2.92;;
10005;SDS011;5042;42.626;23.382;2023-08-20T11:17:41;3.45;;;3.20;;
10005;SDS011;5042;42.626;23.382;2023-08-20T11:20:09;3.35;;;3.05;;
10005;SDS011;5042;42.626;23.382;2023-08-20T11:22:37;2.53;;;2.42;;
10005;SDS011;5042;42.626;23.382;2023-08-20T11:25:05;2.70;;;2.50;;
10005;SDS011;5042;42.626;23.382;2023-08-20T11:27:32;3.13;;;2.75;;
10005;SDS011;5042;42.626;23.382;2023-08-20T11:29:59;3.28;;;2.60;;
10005;SDS011;5042;42.626;23.382;2023-08-20T11:32:27;3.10;;;2.80;;
10005;SDS011;5042;42.626;23.382;2023-08-20T11:34:55;3.50;;;3.20;;
10005;SDS011;5042;42.626;23.382;2023-08-20T11:37:22;2.90;;;2.70;;
10005;SDS011;5042;42.626;23.382;2023-08-20T11:39:48;3.10;;;2.80;;
10005;SDS011;5042;42.626;23.382;2023-08-20T11:42:15;3.75;;;3.17;;
10005;SDS011;5042;42.626;23.382;2023-08-20T11:44:42;2.90;;;2.70;;
10005;SDS011;5042;42.626;23.382;2023-08-20T11:47:13;3.13;;;2.50;;
10005;SDS011;5042;42.626;23.382;2023-08-20T11:49:41;2.92;;;2.70;;
10005;SDS011;5042;42.626;23.382;2023-08-20T11:52:09;3.03;;;2.83;;
10005;SDS011;5042;42.626;23.382;2023-08-20T11:54:36;4.07;;;3.40;;
10005;SDS011;5042;42.626;23.382;2023-08-20T11:57:03;2.67;;;2.47;;
10005;SDS011;5042;42.626;23.382;2023-08-20T11:59:31;3.38;;;3.00;;
10005;SDS011;5042;42.626;23.382;2023-08-20T12:01:59;3.05;;;2.80;;
10005;SDS011;5042;42.626;23.382;2023-08-20T12:04:28;2.85;;;2.60;;
10005;SDS011;5042;42.626;23.382;2023-08-20T12:07:03;2.47;;;2.25;;
10005;SDS011;5042;42.626;23.382;2023-08-20T12:09:32;2.88;;;2.60;;
10005;SDS011;5042;42.626;23.382;2023-08-20T12:11:59;3.05;;;2.75;;
10005;SDS011;5042;42.626;23.382;2023-08-20T12:14:27;3.53;;;3.22;;
10005;SDS011;5042;42.626;23.382;2023-08-20T12:16:54;2.95;;;2.75;;
10005;SDS011;5042;42.626;23.382;2023-08-20T12:19:21;3.97;;;3.28;;
10005;SDS011;5042;42.626;23.382;2023-08-20T12:21:48;3.53;;;3.25;;
10005;SDS011;5042;42.626;23.382;2023-08-20T12:24:15;3.00;;;2.75;;
10005;SDS011;5042;42.626;23.382;2023-08-20T12:26:45;3.03;;;2.83;;
10005;SDS011;5042;42.626;23.382;2023-08-20T12:29:12;3.25;;;2.97;;
10005;SDS011;5042;42.626;23.382;2023-08-20T12:31:39;3.42;;;3.00;;
10005;SDS011;5042;42.626;23.382;2023-08-20T12:34:07;3.85;;;2.75;;
10005;SDS011;5042;42.626;23.382;2023-08-20T12:36:34;3.63;;;3.30;;
10005;SDS011;5042;42.626;23.382;2023-08-20T12:39:01;3.47;;;3.17;;
10005;SDS011;5042;42.626;23.382;2023-08-20T12:41:28;3.30;;;3.00;;
10005;SDS011;5042;42.626;23.382;2023-08-20T12:43:56;2.85;;;2.65;;
10005;SDS011;5042;42.626;23.382;2023-08-20T12:46:23;2.42;;;2.25;;
10005;SDS011;5042;42.626;23.382;2023-08-20T12:48:50;3.40;;;2.63;;
10005;SDS011;5042;42.626;23.382;2023-08-20T12:51:17;3.38;;;3.08;;
10005;SDS011;5042;42.626;23.382;2023-08-20T12:53:43;3.20;;;2.90;;
10005;SDS011;5042;42.626;23.382;2023-08-20T12:56:10;5.05;;;3.17;;
10005;SDS011;5042;42.626;23.382;2023-08-20T12:58:37;3.50;;;3.20;;
10005;SDS011;5042;42.626;23.382;2023-08-20T13:01:05;2.90;;;2.70;;
10005;SDS011;5042;42.626;23.382;2023-08-20T13:03:32;3.10;;;2.90;;
10005;SDS011;5042;42.626;23.382;2023-08-20T13:06:00;5.70;;;3.30;;
10005;SDS011;5042;42.626;23.382;2023-08-20T13:08:27;3.00;;;2.70;;
10005;SDS011;5042;42.626;23.382;2023-08-20T13:10:56;3.17;;;2.95;;
10005;SDS011;5042;42.626;23.382;2023-08-20T13:13:24;2.80;;;2.60;;
10005;SDS011;5042;42.626;23.382;2023-08-20T13:15:52;3.22;;;3.00;;
10005;SDS011;5042;42.626;23.382;2023-08-20T13:18:21;3.22;;;2.92;;
10005;SDS011;5042;42.626;23.382;2023-08-20T13:20:50;3.35;;;3.05;;
10005;SDS011;5042;42.626;23.382;2023-08-20T13:23:17;3.08;;;2.88;;
10005;SDS011;5042;42.626;23.382;2023-08-20T13:25:44;3.53;;;3.22;;
10005;SDS011;5042;42.626;23.382;2023-08-20T13:30:56;4.03;;;3.10;;
10005;SDS011;5042;42.626;23.382;2023-08-20T13:33:24;3.00;;;2.80;;
10005;SDS011;5042;42.626;23.382;2023-08-20T13:35:51;3.08;;;2.70;;
10005;SDS011;5042;42.626;23.382;2023-08-20T13:38:18;4.60;;;3.03;;
10005;SDS011;5042;42.626;23.382;2023-08-20T13:40:46;3.42;;;2.78;;
10005;SDS011;5042;42.626;23.382;2023-08-20T13:43:13;3.00;;;2.70;;
10005;SDS011;5042;42.626;23.382;2023-08-20T13:45:40;4.25;;;2.83;;
10005;SDS011;5042;42.626;23.382;2023-08-20T13:48:07;2.63;;;2.42;;
10005;SDS011;5042;42.626;23.382;2023-08-20T13:50:35;2.80;;;2.60;;
10005;SDS011;5042;42.626;23.382;2023-08-20T13:53:01;2.63;;;2.42;;
10005;SDS011;5042;42.626;23.382;2023-08-20T13:55:28;3.42;;;2.88;;
10005;SDS011;5042;42.626;23.382;2023-08-20T13:57:56;4.80;;;3.08;;
10005;SDS011;5042;42.626;23.382;2023-08-20T14:00:23;3.55;;;3.08;;
10005;SDS011;5042;42.626;23.382;2023-08-20T14:02:49;2.90;;;2.70;;
10005;SDS011;5042;42.626;23.382;2023-08-20T14:05:17;2.92;;;2.72;;
10005;SDS011;5042;42.626;23.382;2023-08-20T14:07:45;2.88;;;2.67;;
10005;SDS011;5042;42.626;23.382;2023-08-20T14:10:13;3.40;;;3.10;;
10005;SDS011;5042;42.626;23.382;2023-08-20T14:12:39;3.30;;;2.72;;
10005;SDS011;5042;42.626;23.382;2023-08-20T14:15:06;3.25;;;2.97;;
10005;SDS011;5042;42.626;23.382;2023-08-20T14:17:34;3.25;;;2.97;;
10005;SDS011;5042;42.626;23.382;2023-08-20T14:20:01;3.42;;;2.38;;
10005;SDS011;5042;42.626;23.382;2023-08-20T14:22:28;3.30;;;2.75;;
10005;SDS011;5042;42.626;23.382;2023-08-20T14:24:56;2.70;;;2.50;;
10005;SDS011;5042;42.626;23.382;2023-08-20T14:27:23;2.75;;;2.55;;
10005;SDS011;5042;42.626;23.382;2023-08-20T14:29:50;3.50;;;2.45;;
10005;SDS011;5042;42.626;23.382;2023-08-20T14:32:16;2.63;;;2.42;;
10005;SDS011;5042;42.626;23.382;2023-08-20T14:34:43;2.67;;;2.47;;
10005;SDS011;5042;42.626;23.382;2023-08-20T14:37:10;2.30;;;2.20;;
10005;SDS011;5042;42.626;23.382;2023-08-20T14:39:38;2.75;;;2.55;;
10005;SDS011;5042;42.626;23.382;2023-08-20T14:42:06;4.07;;;2.80;;
10005;SDS011;5042;42.626;23.382;2023-08-20T14:44:33;2.47;;;2.28;;
10005;SDS011;5042;42.626;23.382;2023-08-20T14:47:00;2.55;;;2.45;;
10005;SDS011;5042;42.626;23.382;2023-08-20T14:49:29;2.08;;;1.98;;
10005;SDS011;5042;42.626;23.382;2023-08-20T14:51:56;2.40;;;2.20;;
10005;SDS011;5042;42.626;23.382;2023-08-20T14:54:24;2.55;;;2.35;;